TimeMDT,TemperatureF,Dew PointF,Humidity,Sea Level PressureIn,VisibilityMPH,Wind Direction,Wind SpeedMPH,Gust SpeedMPH,PrecipitationIn,Events,Conditions,WindDirDegrees,DateUTC
12:15 AM,66.0,52.3,61,30.24,10.0,West,5.8,-,N/A,,Clear,280,2013-07-31 06:15:00
12:35 AM,64.0,52.7,67,30.25,10.0,West,5.8,-,N/A,,Clear,280,2013-07-31 06:35:00
12:55 AM,64.0,51.4,64,30.26,10.0,WNW,6.9,-,N/A,,Clear,300,2013-07-31 06:55:00
1:15 AM,65.3,50.0,58,30.26,10.0,North,16.1,24.2,N/A,,Clear,350,2013-07-31 07:15:00
1:35 AM,64.4,49.1,58,30.27,10.0,North,15.0,-,N/A,,Clear,360,2013-07-31 07:35:00
1:55 AM,63.5,49.3,60,30.27,10.0,North,12.7,-,N/A,,Clear,10,2013-07-31 07:55:00
2:15 AM,62.6,49.5,62,30.27,10.0,North,12.7,-,N/A,,Clear,10,2013-07-31 08:15:00
2:35 AM,62.6,50.0,63,30.27,10.0,North,12.7,-,N/A,,Clear,10,2013-07-31 08:35:00
2:55 AM,62.6,50.9,66,30.28,10.0,North,10.4,-,N/A,,Clear,10,2013-07-31 08:55:00
3:15 AM,61.9,51.3,68,30.28,10.0,ENE,6.9,-,N/A,,Clear,60,2013-07-31 09:15:00
3:35 AM,58.5,50.9,76,30.28,10.0,ESE,6.9,-,N/A,,Clear,110,2013-07-31 09:35:00
3:55 AM,58.5,51.1,76,30.30,10.0,North,3.5,-,N/A,,Clear,10,2013-07-31 09:55:00
4:15 AM,57.2,50.7,79,30.29,10.0,Calm,Calm,-,N/A,,Clear,0,2013-07-31 10:15:00
4:35 AM,56.1,50.5,82,30.29,10.0,West,3.5,-,N/A,,Clear,270,2013-07-31 10:35:00
4:55 AM,56.1,50.7,82,30.29,10.0,Calm,Calm,-,N/A,,Clear,0,2013-07-31 10:55:00
5:15 AM,57.2,50.4,78,30.29,10.0,WNW,3.5,-,N/A,,Clear,300,2013-07-31 11:15:00
5:35 AM,54.5,50.4,86,30.31,10.0,Calm,Calm,-,N/A,,Clear,0,2013-07-31 11:35:00
5:55 AM,55.6,50.9,84,30.31,10.0,WNW,6.9,-,N/A,,Clear,300,2013-07-31 11:55:00
6:15 AM,56.5,51.8,84,30.31,10.0,WNW,6.9,-,N/A,,Clear,300,2013-07-31 12:15:00
6:35 AM,58.3,51.8,79,30.32,10.0,NW,5.8,-,N/A,,Clear,310,2013-07-31 12:35:00
6:55 AM,61.0,52.0,72,30.32,10.0,NW,5.8,-,N/A,,Clear,310,2013-07-31 12:55:00
7:15 AM,63.9,52.7,67,30.32,10.0,NW,3.5,-,N/A,,Clear,310,2013-07-31 13:15:00
7:35 AM,65.7,55.0,69,30.33,10.0,NW,4.6,-,N/A,,Clear,320,2013-07-31 13:35:00
7:55 AM,66.6,54.3,65,30.33,10.0,West,4.6,-,N/A,,Clear,280,2013-07-31 13:55:00
8:15 AM,67.1,54.3,63,30.33,10.0,Calm,Calm,-,N/A,,Clear,0,2013-07-31 14:15:00
8:35 AM,69.6,55.0,60,30.34,10.0,NNW,4.6,-,N/A,,Clear,330,2013-07-31 14:35:00
8:55 AM,70.7,55.2,58,30.33,10.0,Calm,Calm,-,N/A,,Clear,0,2013-07-31 14:55:00
9:15 AM,72.3,54.9,54,30.33,10.0,Calm,Calm,-,N/A,,Clear,0,2013-07-31 15:15:00
9:35 AM,74.3,54.9,51,30.33,10.0,NNW,3.5,-,N/A,,Clear,330,2013-07-31 15:35:00
9:55 AM,75.0,54.1,48,30.32,10.0,Calm,Calm,-,N/A,,Clear,0,2013-07-31 15:55:00
10:15 AM,77.5,52.7,42,30.32,10.0,Calm,Calm,-,N/A,,Clear,0,2013-07-31 16:15:00
10:35 AM,-9999,-9999,N/A,30.32,10.0,Calm,Calm,-,N/A,,Clear,0,2013-07-31 16:35:00
10:55 AM,-9999,-9999,N/A,30.31,10.0,West,5.8,-,N/A,,Clear,260,2013-07-31 16:55:00
11:15 AM,-9999,-9999,N/A,30.31,10.0,SSE,3.5,-,N/A,,Clear,160,2013-07-31 17:15:00
11:35 AM,-9999,-9999,N/A,30.30,10.0,SSE,4.6,-,N/A,,Clear,150,2013-07-31 17:35:00
11:55 AM,-9999,-9999,N/A,30.29,10.0,South,4.6,-,N/A,,Clear,190,2013-07-31 17:55:00
12:15 PM,-9999,-9999,N/A,30.29,10.0,SE,5.8,-,N/A,,Clear,130,2013-07-31 18:15:00
12:35 PM,-9999,-9999,N/A,30.28,10.0,East,4.6,-,N/A,,Clear,100,2013-07-31 18:35:00
12:55 PM,-9999,-9999,N/A,30.27,10.0,SE,4.6,-,N/A,,Clear,130,2013-07-31 18:55:00
1:15 PM,-9999,-9999,N/A,30.27,10.0,East,4.6,-,N/A,,Clear,80,2013-07-31 19:15:00
1:35 PM,-9999,-9999,N/A,30.26,10.0,ESE,5.8,-,N/A,,Clear,110,2013-07-31 19:35:00
1:55 PM,-9999,-9999,N/A,30.25,10.0,SE,9.2,-,N/A,,Clear,130,2013-07-31 19:55:00
2:15 PM,-9999,-9999,N/A,30.24,10.0,SE,9.2,17.3,N/A,,Clear,140,2013-07-31 20:15:00
2:35 PM,-9999,-9999,N/A,30.23,10.0,SE,10.4,17.3,N/A,,Clear,130,2013-07-31 20:35:00
2:55 PM,-9999,-9999,N/A,30.23,10.0,SE,9.2,-,N/A,,Clear,140,2013-07-31 20:55:00
3:15 PM,-9999,-9999,N/A,30.21,10.0,SE,8.1,-,N/A,,Clear,140,2013-07-31 21:15:00
3:35 PM,-9999,-9999,N/A,30.20,10.0,SSE,10.4,-,N/A,,Clear,150,2013-07-31 21:35:00
3:55 PM,-9999,-9999,N/A,30.20,10.0,SE,10.4,-,N/A,,Clear,140,2013-07-31 21:55:00
4:15 PM,-9999,-9999,N/A,30.19,10.0,SE,5.8,-,N/A,,Clear,140,2013-07-31 22:15:00
4:35 PM,-9999,-9999,N/A,30.19,10.0,SE,3.5,-,N/A,,Clear,140,2013-07-31 22:35:00
4:55 PM,-9999,-9999,N/A,30.18,10.0,East,9.2,-,N/A,,Clear,90,2013-07-31 22:55:00
5:15 PM,-9999,-9999,N/A,30.17,10.0,East,8.1,-,N/A,,Clear,90,2013-07-31 23:15:00
5:35 PM,-9999,-9999,N/A,30.17,10.0,ENE,10.4,-,N/A,,Clear,70,2013-07-31 23:35:00
5:55 PM,-9999,-9999,N/A,30.17,10.0,NE,10.4,-,N/A,,Scattered Clouds,50,2013-07-31 23:55:00
6:15 PM,-9999,-9999,N/A,30.18,10.0,NE,18.4,28.8,N/A,,Scattered Clouds,40,2013-08-01 00:15:00
6:35 PM,-9999,-9999,N/A,30.17,10.0,ENE,17.3,-,N/A,,Clear,60,2013-08-01 00:35:00
6:55 PM,-9999,-9999,N/A,30.18,10.0,ENE,13.8,20.7,N/A,,Clear,70,2013-08-01 00:55:00
7:15 PM,-9999,-9999,N/A,30.19,10.0,ENE,15.0,-,N/A,,Scattered Clouds,60,2013-08-01 01:15:00
7:35 PM,-9999,-9999,N/A,30.22,10.0,NE,13.8,-,N/A,,Mostly Cloudy,50,2013-08-01 01:35:00
7:55 PM,-9999,-9999,N/A,30.21,10.0,East,11.5,23.0,N/A,,Scattered Clouds,90,2013-08-01 01:55:00
8:15 PM,76.1,56.1,50,30.19,10.0,East,10.4,-,N/A,,Clear,80,2013-08-01 02:15:00
8:35 PM,74.1,57.9,57,30.21,10.0,East,6.9,-,N/A,,Clear,90,2013-08-01 02:35:00
8:55 PM,74.7,58.8,58,30.23,10.0,East,9.2,-,N/A,,Scattered Clouds,80,2013-08-01 02:55:00
9:15 PM,74.3,59.0,59,30.23,10.0,East,9.2,-,N/A,Thunderstorm,Thunderstorm,90,2013-08-01 03:15:00
9:35 PM,74.3,58.3,57,30.24,10.0,SE,11.5,-,N/A,,Clear,140,2013-08-01 03:35:00
9:55 PM,71.1,55.4,58,30.23,10.0,ESE,9.2,-,N/A,,Scattered Clouds,110,2013-08-01 03:55:00
10:15 PM,69.3,60.1,72,30.24,10.0,ESE,13.8,18.4,N/A,,Scattered Clouds,110,2013-08-01 04:15:00
10:35 PM,68.9,60.1,73,30.24,10.0,SE,17.3,21.9,N/A,,Mostly Cloudy,140,2013-08-01 04:35:00
10:55 PM,68.2,57.2,68,30.25,10.0,South,10.4,-,N/A,,Scattered Clouds,190,2013-08-01 04:55:00
11:15 PM,66.6,55.9,69,30.26,10.0,South,12.7,-,N/A,,Scattered Clouds,180,2013-08-01 05:15:00
11:35 PM,65.1,55.4,71,30.26,10.0,South,11.5,-,N/A,,Scattered Clouds,170,2013-08-01 05:35:00
11:55 PM,65.7,54.9,68,30.27,10.0,SSE,16.1,19.6,N/A,,Scattered Clouds,160,2013-08-01 05:55:00